Ashby, Minnesota
Current Conditions -  °F | °C
As of 8:37 PM on Friday 31 Oct 2014 (Local Time) from KY63 Reporting Station
Clear Clear  
Wind Chill: 23°   Ceiling: Unl
Heat Index: 28°   Visibility: 10mi
Dew Point: 20°   Wind: 5mph
Humidity: 73%   Direction: 140°SE
Pressure: 30.43"   Gusts: NA
Location:  46.09°N, 95.82°W
Report Text: KY63 010137Z AUTO 14004KT 10SM CLR M02/M06 A3043 RMK AO2 T10221065
Loading
Personal Weather Stations






























Interactive Weather Map
Tropical Storm Tracking
New forecast layout! Learn more

10-Day Weather Forecast

Advertisements
Track Severe Weather on mobile